Time;durP1;ratioP1;P1;durP2;ratioP2;P2;SDS_P1;SDS_P2;PMS_P1;PMS_P2;Temp;Humidity;BMP_temperature;BMP_pressure;BME280_temperature;BME280_humidity;BME280_pressure;Samples;Min_cycle;Max_cycle;Signal;HPM_P1;HPM_P2
2023/10/10 00:01:03;;;;;;;13.63;2.63;;;9.80;85.50;;;;;;5031640;28;20040;-74
2023/10/10 00:03:33;;;;;;;6.63;2.33;;;9.70;84.90;;;;;;5032700;28;20044;-74
2023/10/10 00:05:59;;;;;;;7.03;2.50;;;9.80;83.60;;;;;;5032613;28;20028;-74
2023/10/10 00:08:36;;;;;;;10.98;2.63;;;9.70;83.60;;;;;;5031572;28;20112;-74
2023/10/10 00:11:14;;;;;;;;;;;9.70;83.20;;;;;;5033578;28;20029;-75
2023/10/10 00:13:52;;;;;;;13.82;2.35;;;9.60;83.20;;;;;;5033146;28;19991;-76
2023/10/10 00:16:26;;;;;;;9.32;1.92;;;9.60;83.00;;;;;;5033100;28;20521;-74
2023/10/10 00:18:55;;;;;;;9.45;2.75;;;9.60;82.80;;;;;;5032944;28;20558;-75
2023/10/10 00:21:24;;;;;;;7.60;2.65;;;9.60;82.50;;;;;;5033088;28;20042;-74
2023/10/10 00:23:53;;;;;;;10.40;2.20;;;9.60;82.10;;;;;;5032851;28;20045;-75
2023/10/10 00:26:20;;;;;;;7.03;2.30;;;9.70;82.00;;;;;;5031631;28;20183;-74
2023/10/10 00:28:51;;;;;;;5.22;2.33;;;9.60;81.70;;;;;;5032304;28;20033;-75
2023/10/10 00:31:20;;;;;;;12.55;2.80;;;9.80;81.40;;;;;;5032866;28;20107;-75
2023/10/10 00:33:50;;;;;;;6.65;2.25;;;9.70;81.80;;;;;;5033057;28;20036;-74
2023/10/10 00:36:22;;;;;;;5.20;2.28;;;9.60;81.40;;;;;;5033682;28;20034;-74
2023/10/10 00:39:22;;;;;;;6.80;2.03;;;9.80;81.00;;;;;;5032554;28;20040;-74
2023/10/10 00:41:50;;;;;;;7.22;2.00;;;9.90;80.70;;;;;;5034233;28;20486;-75
2023/10/10 00:44:17;;;;;;;6.53;2.35;;;9.90;80.40;;;;;;5032751;28;20044;-75
2023/10/10 00:46:51;;;;;;;8.63;2.30;;;9.90;80.20;;;;;;5034312;28;20486;-74
2023/10/10 00:49:23;;;;;;;12.57;2.42;;;9.90;80.20;;;;;;5034437;28;20040;-76
2023/10/10 00:51:54;;;;;;;6.25;2.25;;;9.90;80.70;;;;;;5037622;28;20036;-78
2023/10/10 00:56:54;;;;;;;19.27;3.03;;;10.00;79.70;;;;;;5034567;28;20057;-75
2023/10/10 00:59:42;;;;;;;8.10;1.95;;;9.90;79.40;;;;;;5032269;28;20036;-75
2023/10/10 01:02:10;;;;;;;8.10;2.53;;;9.80;78.70;;;;;;5031630;28;20037;-76
2023/10/10 01:04:39;;;;;;;7.47;2.17;;;9.90;78.10;;;;;;5030136;28;20044;-76
2023/10/10 01:07:08;;;;;;;5.70;1.77;;;10.00;78.50;;;;;;5030282;28;20025;-75
2023/10/10 01:09:57;;;;;;;9.20;2.05;;;10.10;77.80;;;;;;5030228;28;20203;-75
2023/10/10 01:12:39;;;;;;;7.10;2.38;;;10.00;78.10;;;;;;5031484;28;20034;-76
2023/10/10 01:15:12;;;;;;;7.68;2.25;;;10.00;78.20;;;;;;5030055;28;20033;-76
2023/10/10 01:17:38;;;;;;;7.20;1.63;;;10.00;77.80;;;;;;5031086;28;20132;-76
2023/10/10 01:22:49;;;;;;;9.18;1.55;;;9.80;78.50;;;;;;5031573;28;19912;-75
2023/10/10 01:28:13;;;;;;;6.22;1.48;;;9.80;79.70;;;;;;5031166;28;20030;-75
2023/10/10 01:33:35;;;;;;;5.55;1.42;;;9.90;79.80;;;;;;5031243;28;20029;-76
2023/10/10 01:36:03;;;;;;;4.55;1.58;;;9.90;79.90;;;;;;5029468;28;20029;-74
2023/10/10 01:38:44;;;;;;;4.40;1.10;;;9.90;80.00;;;;;;5030851;28;20110;-75
2023/10/10 01:43:58;;;;;;;6.13;1.48;;;10.00;79.50;;;;;;5030842;28;20126;-75
2023/10/10 01:46:29;;;;;;;7.93;1.85;;;10.00;79.50;;;;;;5030759;28;20501;-75
2023/10/10 01:48:58;;;;;;;4.70;1.35;;;10.00;79.40;;;;;;5030673;28;20029;-76
2023/10/10 01:51:24;;;;;;;9.07;1.20;;;10.00;80.00;;;;;;5029381;28;20029;-76
2023/10/10 01:53:52;;;;;;;4.28;1.60;;;10.00;79.70;;;;;;5029524;28;20866;-75
2023/10/10 01:56:18;;;;;;;8.88;1.83;;;9.90;79.60;;;;;;5029257;28;20111;-76
2023/10/10 01:58:43;;;;;;;;;;;10.00;79.60;;;;;;5030618;28;20071;-76
2023/10/10 02:01:19;;;;;;;8.80;1.20;;;10.00;79.10;;;;;;5029122;28;19909;-75
2023/10/10 02:03:46;;;;;;;18.37;2.20;;;10.00;78.90;;;;;;5029211;28;20547;-76
2023/10/10 02:06:25;;;;;;;9.93;1.27;;;10.00;79.00;;;;;;5029070;28;20041;-75
2023/10/10 02:11:49;;;;;;;4.93;1.58;;;10.00;78.80;;;;;;5030464;28;20079;-76
2023/10/10 02:14:18;;;;;;;5.53;1.35;;;10.00;79.30;;;;;;5030167;28;20104;-77
2023/10/10 02:16:47;;;;;;;11.95;1.55;;;10.00;80.00;;;;;;5028591;28;20028;-77
2023/10/10 02:19:24;;;;;;;5.68;1.92;;;10.00;80.20;;;;;;5028648;28;20038;-76
2023/10/10 02:21:51;;;;;;;9.02;1.50;;;10.10;79.10;;;;;;5030214;28;20486;-76
2023/10/10 02:26:55;;;;;;;6.85;1.02;;;10.00;80.40;;;;;;5029991;28;20033;-76
2023/10/10 02:32:08;;;;;;;4.35;1.90;;;10.10;82.00;;;;;;5030526;28;20034;-76
2023/10/10 02:34:37;;;;;;;7.38;2.00;;;10.10;82.80;;;;;;5030793;28;20394;-76
2023/10/10 02:39:54;;;;;;;11.70;2.10;;;10.10;85.20;;;;;;5030279;28;20052;-76
2023/10/10 02:42:20;;;;;;;9.48;2.20;;;10.10;86.50;;;;;;5030064;28;20018;-76
2023/10/10 02:44:57;;;;;;;;;;;10.10;88.50;;;;;;5029791;28;20052;-76
2023/10/10 02:47:36;;;;;;;8.83;2.17;;;10.10;89.70;;;;;;5029521;28;19956;-76
2023/10/10 02:50:39;;;;;;;5.78;3.10;;;10.10;89.80;;;;;;5031262;28;20552;-76
2023/10/10 02:53:06;;;;;;;5.80;2.00;;;10.00;89.80;;;;;;5031587;28;20497;-76
2023/10/10 02:55:33;;;;;;;3.80;1.65;;;10.00;89.70;;;;;;5028551;28;20425;-76
2023/10/10 02:57:59;;;;;;;4.00;1.75;;;10.00;89.10;;;;;;5027737;28;20021;-77
2023/10/10 03:02:53;;;;;;;6.97;1.50;;;10.10;89.80;;;;;;5029150;28;20557;-76
2023/10/10 03:05:39;;;;;;;8.18;1.60;;;10.00;89.20;;;;;;5029010;28;20041;-75
2023/10/10 03:08:19;;;;;;;6.65;2.20;;;10.00;89.40;;;;;;5029278;28;20112;-75
2023/10/10 03:10:53;;;;;;;7.97;1.27;;;10.10;87.40;;;;;;5028953;28;20029;-75
2023/10/10 03:13:35;;;;;;;7.35;2.05;;;10.10;87.00;;;;;;5029011;28;20033;-75
2023/10/10 03:19:13;;;;;;;7.38;2.45;;;10.10;85.70;;;;;;5029157;28;20053;-76
2023/10/10 03:29:21;;;;;;;3.88;1.50;;;10.00;86.20;;;;;;5029280;28;20064;-75
2023/10/10 03:31:55;;;;;;;2.97;1.40;;;10.00;86.20;;;;;;5027714;28;20033;-75
2023/10/10 03:34:32;;;;;;;13.10;2.35;;;10.00;86.60;;;;;;5028810;28;20053;-77
2023/10/10 03:37:20;;;;;;;8.10;2.17;;;10.10;86.30;;;;;;5028937;28;20030;-75
2023/10/10 03:39:54;;;;;;;5.53;1.42;;;10.10;86.80;;;;;;5028253;28;20043;-76
2023/10/10 05:24:08;;;;;;;6.70;1.75;;;9.80;94.50;;;;;;5031748;28;20548;-75
2023/10/10 05:26:46;;;;;;;8.10;2.45;;;9.80;94.70;;;;;;5031523;28;20033;-76
2023/10/10 05:29:19;;;;;;;10.00;2.42;;;9.90;94.70;;;;;;5029882;28;20033;-76
2023/10/10 05:31:51;;;;;;;6.78;1.88;;;9.90;94.50;;;;;;5031117;28;20022;-76
2023/10/10 05:34:18;;;;;;;10.95;2.20;;;10.00;94.60;;;;;;5031223;28;20029;-76
2023/10/10 05:36:46;;;;;;;11.63;2.38;;;10.00;94.60;;;;;;5030917;28;20133;-76
2023/10/10 05:39:17;;;;;;;11.95;2.50;;;10.00;94.50;;;;;;5029165;28;20034;-76
2023/10/10 05:41:54;;;;;;;5.22;1.88;;;10.10;94.20;;;;;;5030667;28;20025;-76
2023/10/10 05:44:20;;;;;;;;;;;10.10;94.10;;;;;;5031190;28;20029;-76
2023/10/10 05:46:47;;;;;;;11.68;3.33;;;10.20;94.00;;;;;;5029317;28;20378;-76
2023/10/10 05:49:13;;;;;;;;;;;10.20;93.70;;;;;;5029831;28;20517;-76
2023/10/10 05:51:40;;;;;;;10.82;3.72;;;10.30;93.10;;;;;;5030115;28;19906;-76
2023/10/10 05:54:10;;;;;;;6.93;2.75;;;10.30;93.20;;;;;;5028953;28;20160;-76
2023/10/10 05:56:37;;;;;;;15.20;2.75;;;10.30;93.40;;;;;;5030305;28;20502;-76
2023/10/10 05:59:03;;;;;;;16.00;3.05;;;10.40;93.60;;;;;;5030390;28;20059;-77
2023/10/10 06:01:30;;;;;;;7.97;2.40;;;10.50;93.40;;;;;;5028896;28;20034;-75
2023/10/10 06:03:57;;;;;;;9.43;2.95;;;10.40;93.20;;;;;;5030043;28;20069;-75
2023/10/10 06:06:22;;;;;;;5.60;2.28;;;10.40;93.40;;;;;;5029021;28;20090;-78
2023/10/10 06:08:58;;;;;;;;;;;10.50;93.40;;;;;;5029016;28;20403;-75
2023/10/10 06:11:24;;;;;;;7.28;2.13;;;10.60;93.20;;;;;;5029928;28;20401;-76
2023/10/10 06:13:49;;;;;;;;;;;10.60;93.00;;;;;;5030358;28;20061;-76
2023/10/10 06:16:15;;;;;;;7.57;2.40;;;10.60;92.80;;;;;;5029678;28;19916;-76
2023/10/10 06:18:49;;;;;;;;;;;10.60;92.70;;;;;;5030143;28;20060;-75
2023/10/10 06:21:16;;;;;;;8.32;2.50;;;10.70;92.20;;;;;;5029570;28;20270;-75
2023/10/10 06:23:43;;;;;;;6.38;2.55;;;10.80;92.10;;;;;;5028173;28;20044;-76
2023/10/10 06:26:09;;;;;;;7.07;2.72;;;10.80;91.90;;;;;;5029307;28;20033;-76
2023/10/10 06:28:48;;;;;;;;;;;10.90;91.90;;;;;;5030036;28;20034;-77
2023/10/10 06:31:19;;;;;;;14.57;3.33;;;11.00;91.70;;;;;;5029635;28;20029;-76
2023/10/10 06:33:49;;;;;;;7.03;2.95;;;11.10;91.60;;;;;;5029482;28;20394;-76
2023/10/10 06:41:51;;;;;;;16.10;5.43;;;11.40;90.90;;;;;;5033041;28;20029;-76
2023/10/10 06:44:31;;;;;;;10.02;4.30;;;11.60;90.50;;;;;;5029079;28;20091;-78
2023/10/10 06:46:57;;;;;;;7.82;3.00;;;11.70;90.10;;;;;;5029069;28;20092;-76
2023/10/10 06:49:23;;;;;;;5.22;3.03;;;11.80;89.90;;;;;;5029520;28;20371;-77
2023/10/10 06:51:50;;;;;;;;;;;11.90;89.90;;;;;;5028995;28;20086;-77
2023/10/10 06:54:27;;;;;;;6.97;2.30;;;11.90;89.60;;;;;;5027866;28;19909;-75
2023/10/10 06:59:27;;;;;;;4.78;2.30;;;12.10;88.00;;;;;;5029092;28;20099;-77
2023/10/10 07:01:57;;;;;;;5.65;2.05;;;12.20;87.90;;;;;;5027711;28;20032;-76
2023/10/10 07:04:23;;;;;;;8.82;3.45;;;12.40;87.80;;;;;;5028754;28;20044;-75
2023/10/10 07:06:51;;;;;;;9.02;2.72;;;12.50;87.90;;;;;;5028964;28;20109;-74
2023/10/10 07:09:29;;;;;;;4.97;2.58;;;12.70;87.40;;;;;;5027474;28;20025;-73
2023/10/10 07:11:56;;;;;;;12.27;3.45;;;12.90;86.50;;;;;;5027560;28;20116;-77
2023/10/10 07:14:25;;;;;;;18.13;3.30;;;13.10;85.60;;;;;;5028744;28;20057;-73
2023/10/10 07:16:54;;;;;;;8.98;3.88;;;13.10;85.50;;;;;;5028229;28;20049;-75
2023/10/10 07:19:23;;;;;;;16.17;4.82;;;13.00;87.00;;;;;;5028685;28;20108;-72
2023/10/10 07:21:51;;;;;;;9.80;3.60;;;13.00;87.80;;;;;;5027406;28;20513;-75
2023/10/10 07:24:18;;;;;;;8.43;3.30;;;13.00;88.30;;;;;;5028449;28;20658;-77
2023/10/10 07:26:58;;;;;;;8.43;3.75;;;13.20;88.10;;;;;;5027185;28;20034;-76
2023/10/10 07:32:16;;;;;;;13.55;4.00;;;13.20;88.00;;;;;;5028514;28;20490;-72
2023/10/10 07:34:52;;;;;;;13.18;3.00;;;13.50;88.00;;;;;;5028842;28;20021;-74
2023/10/10 07:37:18;;;;;;;8.80;3.28;;;13.70;87.90;;;;;;5027517;28;20030;-77
2023/10/10 07:39:56;;;;;;;7.97;3.80;;;13.90;87.60;;;;;;5028378;28;20113;-73
2023/10/10 07:42:34;;;;;;;10.35;4.18;;;14.10;87.00;;;;;;5028517;28;20075;-72
2023/10/10 07:45:13;;;;;;;11.35;3.92;;;14.20;86.40;;;;;;5027154;28;20041;-72
2023/10/10 07:50:27;;;;;;;10.68;4.07;;;14.10;86.60;;;;;;5028579;28;20033;-73
2023/10/10 07:52:54;;;;;;;11.75;3.75;;;13.90;86.50;;;;;;5028151;28;20021;-73
2023/10/10 07:55:22;;;;;;;11.90;3.63;;;13.80;86.70;;;;;;5028435;28;20036;-73
2023/10/10 07:58:00;;;;;;;10.20;3.15;;;13.80;87.20;;;;;;5028494;28;20092;-73
2023/10/10 08:00:35;;;;;;;11.13;3.75;;;13.70;86.80;;;;;;5028315;28;20025;-75
2023/10/10 08:03:07;;;;;;;10.07;3.92;;;13.70;86.10;;;;;;5028893;28;20044;-73
2023/10/10 08:05:33;;;;;;;11.82;4.70;;;13.60;86.50;;;;;;5029926;28;20045;-72
2023/10/10 08:08:05;;;;;;;10.68;4.10;;;13.50;86.30;;;;;;5030897;28;20036;-74
2023/10/10 08:10:38;;;;;;;11.00;4.82;;;13.50;85.90;;;;;;5030805;28;20037;-73
2023/10/10 08:13:10;;;;;;;7.82;3.63;;;13.60;86.10;;;;;;5031957;28;20024;-74
2023/10/10 08:15:50;;;;;;;12.73;4.55;;;13.70;86.40;;;;;;5032086;28;20498;-72
2023/10/10 08:19:04;;;;;;;7.45;3.30;;;13.70;86.70;;;;;;5030635;28;20129;-74
2023/10/10 08:23:30;;;;;;;;;;;14.00;86.90;;;;;;5032420;28;20486;-73
2023/10/10 08:25:57;;;;;;;12.32;4.60;;;14.00;86.70;;;;;;5030601;28;20378;-73
2023/10/10 08:28:23;;;;;;;17.73;5.13;;;14.10;86.80;;;;;;5031689;28;20030;-74
2023/10/10 08:30:50;;;;;;;14.93;4.32;;;14.10;87.50;;;;;;5031823;28;20075;-74
2023/10/10 08:33:16;;;;;;;13.57;5.47;;;14.00;87.50;;;;;;5031690;28;20064;-72
2023/10/10 08:35:42;;;;;;;14.30;4.78;;;14.10;87.20;;;;;;5031632;28;20018;-72
2023/10/10 08:38:08;;;;;;;16.70;5.00;;;14.00;87.80;;;;;;5030384;28;20037;-74
2023/10/10 08:40:35;;;;;;;9.73;4.93;;;14.10;88.10;;;;;;5031671;28;20021;-73
2023/10/10 08:43:07;;;;;;;15.23;4.80;;;14.20;88.40;;;;;;5030316;28;20033;-75
2023/10/10 08:45:49;;;;;;;18.35;4.63;;;14.20;88.50;;;;;;5031634;28;20041;-73
2023/10/10 08:48:16;;;;;;;12.80;5.20;;;14.10;88.80;;;;;;5030374;28;20045;-74
2023/10/10 08:50:46;;;;;;;10.27;4.45;;;14.00;89.00;;;;;;5031215;28;20031;-74
2023/10/10 08:53:13;;;;;;;11.68;5.32;;;14.00;89.40;;;;;;5030005;28;20025;-73
2023/10/10 08:55:40;;;;;;;14.23;6.18;;;14.00;89.80;;;;;;5030962;28;20029;-72
2023/10/10 08:58:07;;;;;;;14.30;6.53;;;14.00;90.10;;;;;;5031301;28;20033;-75
2023/10/10 09:00:34;;;;;;;13.88;6.55;;;14.00;90.10;;;;;;5031056;28;20030;-75
2023/10/10 09:02:59;;;;;;;16.25;6.32;;;14.10;90.20;;;;;;5038929;28;20053;-72
2023/10/10 09:05:28;;;;;;;;;;;14.00;90.70;;;;;;5030952;28;20049;-74
2023/10/10 09:07:55;;;;;;;11.57;4.07;;;14.00;91.10;;;;;;5043963;28;20348;-74
2023/10/10 09:10:28;;;;;;;16.95;6.88;;;14.10;91.10;;;;;;5042594;28;20120;-73
2023/10/10 09:12:58;;;;;;;14.55;5.60;;;14.30;90.20;;;;;;5039324;28;20029;-73
2023/10/10 09:15:25;;;;;;;15.52;5.60;;;14.20;90.50;;;;;;5028446;28;20061;-74
2023/10/10 09:17:58;;;;;;;19.65;6.40;;;14.20;90.50;;;;;;5029461;28;20819;-73
2023/10/10 09:20:28;;;;;;;18.38;6.18;;;14.30;90.20;;;;;;5029343;28;20037;-73
2023/10/10 09:23:02;;;;;;;13.13;5.68;;;14.20;90.40;;;;;;5029071;28;20087;-73
2023/10/10 09:28:15;;;;;;;12.82;4.75;;;14.20;90.90;;;;;;5030994;28;20032;-73
2023/10/10 09:30:58;;;;;;;12.82;5.32;;;14.20;90.80;;;;;;5030797;28;20021;-74
2023/10/10 09:33:29;;;;;;;47.67;7.30;;;14.30;90.80;;;;;;5030541;28;20052;-73
2023/10/10 09:35:59;;;;;;;113.68;13.55;;;14.30;90.80;;;;;;5030504;28;20105;-73
2023/10/10 09:38:36;;;;;;;22.15;5.65;;;14.40;90.70;;;;;;5029243;28;20025;-73
2023/10/10 09:41:11;;;;;;;19.05;5.15;;;14.50;90.50;;;;;;5030324;28;20033;-74
2023/10/10 09:43:49;;;;;;;12.90;5.45;;;14.50;90.30;;;;;;5030187;28;20548;-73
2023/10/10 09:46:25;;;;;;;14.93;5.30;;;14.50;90.00;;;;;;5028870;28;20037;-73
2023/10/10 09:52:49;;;;;;;10.95;5.53;;;14.40;90.10;;;;;;5030249;28;20049;-72
2023/10/10 09:54:25;;;;;;;19.50;5.55;;;14.40;90.20;;;;;;5029524;28;20490;-73
2023/10/10 09:56:53;;;;;;;12.30;5.32;;;14.30;90.40;;;;;;5030239;28;20556;-72
2023/10/10 09:59:20;;;;;;;10.02;5.18;;;14.20;90.40;;;;;;5030407;28;20410;-75
2023/10/10 10:01:47;;;;;;;12.20;4.63;;;14.20;90.60;;;;;;5028852;28;20441;-73
2023/10/10 10:04:25;;;;;;;12.07;5.55;;;14.10;90.70;;;;;;5028034;28;20041;-74
2023/10/10 10:07:17;;;;;;;11.85;5.32;;;14.00;91.10;;;;;;5027943;28;20022;-74
2023/10/10 10:09:51;;;;;;;13.93;5.20;;;13.90;91.30;;;;;;5031944;28;20025;-74
2023/10/10 10:12:41;;;;;;;11.75;6.18;;;13.90;91.40;;;;;;5037339;28;20564;-74
2023/10/10 10:15:22;;;;;;;12.48;5.82;;;13.80;91.50;;;;;;5028359;28;20417;-74
2023/10/10 10:23:37;;;;;;;14.55;5.13;;;13.80;91.80;;;;;;5039425;28;20025;-74
2023/10/10 10:26:04;;;;;;;11.75;5.28;;;14.00;91.80;;;;;;5037628;28;20039;-74
2023/10/10 10:28:36;;;;;;;14.05;5.53;;;14.00;91.60;;;;;;5036956;28;20024;-73
2023/10/10 10:31:07;;;;;;;17.05;5.68;;;14.10;91.50;;;;;;5037963;28;20024;-74
2023/10/10 10:33:36;;;;;;;13.38;4.50;;;14.10;91.10;;;;;;5038489;28;20025;-77
2023/10/10 10:36:06;;;;;;;13.45;4.85;;;14.10;91.20;;;;;;5037913;28;20021;-73
2023/10/10 10:38:34;;;;;;;13.35;4.95;;;14.20;91.20;;;;;;5038483;28;20021;-72
2023/10/10 10:41:16;;;;;;;13.77;4.40;;;14.30;91.00;;;;;;5035990;28;20120;-72
2023/10/10 10:43:51;;;;;;;21.98;5.65;;;14.40;91.00;;;;;;5038883;28;20044;-73
2023/10/10 10:46:27;;;;;;;10.25;5.45;;;14.50;90.90;;;;;;5036172;28;20029;-73
2023/10/10 10:49:05;;;;;;;14.75;5.45;;;14.50;90.40;;;;;;5036853;28;20029;-72
2023/10/10 10:51:41;;;;;;;12.05;6.32;;;14.40;90.50;;;;;;5038317;28;20095;-74
2023/10/10 10:55:07;;;;;;;10.55;4.60;;;14.40;90.80;;;;;;5036654;28;20033;-74
2023/10/10 10:57:01;;;;;;;18.13;4.80;;;14.40;91.00;;;;;;5050982;28;20041;-74
2023/10/10 10:59:35;;;;;;;11.52;5.22;;;14.50;91.00;;;;;;5047505;28;20060;-76
2023/10/10 11:02:05;;;;;;;12.75;5.20;;;14.70;90.60;;;;;;5047535;28;20040;-76
2023/10/10 11:07:07;;;;;;;12.30;5.78;;;14.90;90.20;;;;;;5048700;28;20032;-75
2023/10/10 11:09:36;;;;;;;23.38;5.57;;;15.10;89.40;;;;;;5047366;28;20120;-77
2023/10/10 11:12:06;;;;;;;10.50;4.72;;;15.30;88.20;;;;;;5047276;28;20032;-76
2023/10/10 11:14:44;;;;;;;8.23;4.68;;;15.40;88.60;;;;;;5048580;28;20032;-75
2023/10/10 11:17:17;;;;;;;11.25;5.15;;;15.50;88.40;;;;;;5041049;28;20076;-76
2023/10/10 11:19:43;;;;;;;11.13;5.68;;;15.60;88.10;;;;;;5036265;28;20088;-75
2023/10/10 11:22:38;;;;;;;13.02;4.68;;;15.70;88.00;;;;;;5027371;28;20040;-76
2023/10/10 11:25:04;;;;;;;10.07;4.32;;;15.60;87.90;;;;;;5028224;28;20033;-76
2023/10/10 11:27:33;;;;;;;11.88;4.45;;;15.50;88.70;;;;;;5028592;28;20555;-77
2023/10/10 11:30:08;;;;;;;12.43;4.95;;;15.40;89.10;;;;;;5027558;28;20452;-77
2023/10/10 11:32:46;;;;;;;10.13;4.97;;;15.40;88.90;;;;;;5028607;28;20029;-75
2023/10/10 11:35:26;;;;;;;11.02;4.50;;;15.40;89.00;;;;;;5027370;28;20048;-76
2023/10/10 11:40:52;;;;;;;18.00;4.30;;;15.40;89.20;;;;;;5032113;28;20042;-76
2023/10/10 11:43:19;;;;;;;10.25;4.88;;;15.50;89.20;;;;;;5027032;28;20418;-75
2023/10/10 11:45:51;;;;;;;18.17;4.78;;;15.50;89.00;;;;;;5028395;28;20103;-75
2023/10/10 11:48:17;;;;;;;10.80;4.40;;;15.60;88.80;;;;;;5037345;28;20033;-76
2023/10/10 11:50:45;;;;;;;12.05;5.97;;;15.60;88.60;;;;;;5030016;28;20022;-76
2023/10/10 11:53:19;;;;;;;14.18;5.57;;;15.60;87.00;;;;;;5027172;28;20026;-76
2023/10/10 11:55:45;;;;;;;14.38;5.15;;;15.50;87.80;;;;;;5028508;28;20103;-76
2023/10/10 11:58:17;;;;;;;17.30;5.03;;;15.50;88.50;;;;;;5043818;28;20461;-76
2023/10/10 12:01:03;;;;;;;10.05;5.43;;;15.40;89.20;;;;;;5045852;28;20033;-75
2023/10/10 12:06:14;;;;;;;14.32;5.88;;;15.20;90.10;;;;;;5041208;28;20041;-76
2023/10/10 12:08:49;;;;;;;10.57;5.10;;;15.20;90.20;;;;;;5046820;28;20115;-75
2023/10/10 12:11:21;;;;;;;10.98;4.82;;;15.20;90.10;;;;;;5033580;28;20029;-74
2023/10/10 12:13:51;;;;;;;9.80;5.03;;;15.10;90.10;;;;;;5027086;28;20406;-74
2023/10/10 12:16:17;;;;;;;11.10;5.05;;;15.00;90.70;;;;;;5027124;28;20033;-76
2023/10/10 12:18:53;;;;;;;9.57;5.00;;;15.00;91.00;;;;;;5028040;28;20472;-76
2023/10/10 12:21:20;;;;;;;10.55;4.55;;;14.90;91.30;;;;;;5028176;28;20044;-75
2023/10/10 12:23:55;;;;;;;9.02;4.50;;;14.80;91.60;;;;;;5027887;28;20029;-75
2023/10/10 12:26:24;;;;;;;12.75;5.22;;;14.80;91.80;;;;;;5026756;28;20413;-74
2023/10/10 12:28:53;;;;;;;13.95;5.45;;;14.70;92.00;;;;;;5028019;28;20505;-75
2023/10/10 12:31:21;;;;;;;18.95;5.25;;;14.70;92.30;;;;;;5026393;28;20042;-75
2023/10/10 12:33:53;;;;;;;9.63;4.97;;;14.60;92.50;;;;;;5026700;28;20025;-74
2023/10/10 12:36:22;;;;;;;13.30;4.63;;;14.50;92.50;;;;;;5026584;28;20033;-76
2023/10/10 12:38:48;;;;;;;9.68;4.90;;;14.50;92.70;;;;;;5027949;28;20024;-75
2023/10/10 12:41:20;;;;;;;13.05;5.65;;;14.50;92.80;;;;;;5027962;28;20086;-77
2023/10/10 12:43:49;;;;;;;15.25;6.20;;;14.50;92.90;;;;;;5026642;28;20036;-74
2023/10/10 12:46:20;;;;;;;11.77;4.95;;;14.50;93.00;;;;;;5027903;28;20041;-77
2023/10/10 12:48:51;;;;;;;11.85;4.65;;;14.50;93.20;;;;;;5027869;28;20502;-74
2023/10/10 12:51:19;;;;;;;10.35;4.68;;;14.60;93.30;;;;;;5030038;28;20025;-75
2023/10/10 12:53:45;;;;;;;9.65;4.90;;;14.60;93.50;;;;;;5031157;28;20029;-75
2023/10/10 12:56:16;;;;;;;11.18;4.80;;;14.60;93.60;;;;;;5029686;28;20171;-76
2023/10/10 12:59:03;;;;;;;9.35;5.07;;;14.60;93.70;;;;;;5031086;28;20588;-76
2023/10/10 13:01:32;;;;;;;10.30;4.85;;;14.60;93.70;;;;;;5031224;28;20437;-74
2023/10/10 13:03:59;;;;;;;9.07;4.80;;;14.60;93.90;;;;;;5030924;28;20030;-75
2023/10/10 13:06:25;;;;;;;11.68;5.15;;;14.60;94.10;;;;;;5031189;28;20112;-75
2023/10/10 13:11:20;;;;;;;9.90;4.90;;;14.50;94.40;;;;;;5031393;28;20033;-74
2023/10/10 13:13:52;;;;;;;17.50;5.78;;;14.60;94.50;;;;;;5029509;28;20083;-74
2023/10/10 13:16:23;;;;;;;10.00;5.13;;;14.50;94.30;;;;;;5030880;28;20018;-72
2023/10/10 13:18:53;;;;;;;13.80;4.88;;;14.50;94.50;;;;;;5029338;28;20061;-71
2023/10/10 13:21:22;;;;;;;64.32;38.28;;;14.50;94.50;;;;;;5030862;28;20029;-75
2023/10/10 13:23:49;;;;;;;27.60;14.38;;;14.60;94.50;;;;;;5046061;28;20044;-75
2023/10/10 13:26:16;;;;;;;16.92;8.60;;;14.50;94.40;;;;;;5030712;28;20040;-74
2023/10/10 13:28:44;;;;;;;13.93;6.75;;;14.50;94.50;;;;;;5036640;28;20025;-75
2023/10/10 13:31:14;;;;;;;11.30;5.75;;;14.50;94.50;;;;;;5030751;28;20025;-74
2023/10/10 13:33:40;;;;;;;10.02;4.70;;;14.50;94.60;;;;;;5034798;28;20029;-75
2023/10/10 13:36:11;;;;;;;10.68;5.68;;;14.50;94.70;;;;;;5048058;28;20091;-74
2023/10/10 13:38:46;;;;;;;8.63;5.20;;;14.50;94.50;;;;;;5045820;28;20554;-74
2023/10/10 13:41:12;;;;;;;13.55;5.22;;;14.60;94.60;;;;;;5037835;28;20120;-74
2023/10/10 13:43:41;;;;;;;8.95;4.45;;;14.60;94.40;;;;;;5028907;28;20112;-74
2023/10/10 13:46:07;;;;;;;9.73;4.55;;;14.60;94.40;;;;;;5030169;28;20511;-74
2023/10/10 13:48:36;;;;;;;10.02;5.03;;;14.70;94.20;;;;;;5029008;28;20033;-74
2023/10/10 13:51:04;;;;;;;7.95;4.30;;;14.70;94.00;;;;;;5030287;28;20501;-74
2023/10/10 13:53:31;;;;;;;11.88;3.92;;;14.70;93.80;;;;;;5028838;28;20021;-75
2023/10/10 13:56:00;;;;;;;11.02;4.43;;;14.70;93.90;;;;;;5030340;28;20052;-76
2023/10/10 13:58:26;;;;;;;8.27;4.22;;;14.80;93.90;;;;;;5030118;28;20028;-74
2023/10/10 14:01:14;;;;;;;9.48;4.25;;;14.70;93.90;;;;;;5031786;28;20409;-75
2023/10/10 14:03:48;;;;;;;10.20;4.35;;;14.70;94.00;;;;;;5039051;28;20043;-74
2023/10/10 14:06:19;;;;;;;11.73;4.88;;;14.80;93.80;;;;;;5038597;28;20039;-75
2023/10/10 14:08:49;;;;;;;9.63;4.57;;;14.80;94.00;;;;;;5038830;28;20021;-76
2023/10/10 14:11:22;;;;;;;11.52;4.25;;;14.70;94.20;;;;;;5037982;28;20532;-74
2023/10/10 14:13:49;;;;;;;10.55;4.93;;;14.70;94.40;;;;;;5033705;28;20145;-75
2023/10/10 14:16:15;;;;;;;8.55;4.32;;;14.60;94.50;;;;;;5029600;28;20029;-75
2023/10/10 14:18:49;;;;;;;9.90;4.50;;;14.60;94.80;;;;;;5029297;28;20045;-75
2023/10/10 14:21:17;;;;;;;9.05;4.47;;;14.50;95.00;;;;;;5043581;28;20079;-73
2023/10/10 14:23:46;;;;;;;15.15;5.93;;;14.50;95.10;;;;;;5049172;28;20033;-75
2023/10/10 14:26:12;;;;;;;8.02;4.43;;;14.50;95.10;;;;;;5047119;28;20040;-75
2023/10/10 14:28:50;;;;;;;8.80;3.95;;;14.40;95.30;;;;;;5033249;28;20027;-74
2023/10/10 14:31:31;;;;;;;10.85;4.45;;;14.40;95.50;;;;;;5047141;28;20033;-75
2023/10/10 14:34:00;;;;;;;13.20;5.68;;;14.50;95.90;;;;;;5048035;28;20075;-74
2023/10/10 14:36:27;;;;;;;12.02;4.63;;;14.40;96.00;;;;;;5049276;28;20032;-74
2023/10/10 14:38:53;;;;;;;10.10;4.57;;;14.50;96.10;;;;;;5049200;28;20671;-75
2023/10/10 14:41:22;;;;;;;7.47;4.30;;;14.50;96.20;;;;;;5046792;28;20026;-73
2023/10/10 14:43:54;;;;;;;9.65;4.80;;;14.50;96.30;;;;;;5039428;28;20029;-73
2023/10/10 14:46:31;;;;;;;11.18;4.82;;;14.50;96.40;;;;;;5029247;28;20434;-74
2023/10/10 14:49:16;;;;;;;13.23;6.07;;;14.50;96.50;;;;;;5028115;28;20113;-75
2023/10/10 14:51:48;;;;;;;15.20;6.88;;;14.60;96.60;;;;;;5027213;28;20406;-74
2023/10/10 14:54:17;;;;;;;20.67;6.88;;;14.60;96.50;;;;;;5029143;28;20108;-75
2023/10/10 14:56:49;;;;;;;17.13;5.75;;;14.60;96.50;;;;;;5027599;28;20025;-75
2023/10/10 14:59:20;;;;;;;13.90;6.00;;;14.60;96.60;;;;;;5035186;28;20116;-74
2023/10/10 15:01:49;;;;;;;18.38;6.85;;;14.60;96.70;;;;;;5046945;28;20036;-73
2023/10/10 15:04:17;;;;;;;15.57;7.28;;;14.70;96.90;;;;;;5048731;28;20413;-73
2023/10/10 15:06:44;;;;;;;14.70;7.43;;;14.70;97.10;;;;;;5048842;28;20029;-73
2023/10/10 15:09:13;;;;;;;15.73;6.05;;;14.70;97.20;;;;;;5048779;28;20114;-73
2023/10/10 15:11:43;;;;;;;14.95;6.00;;;14.70;97.30;;;;;;5047962;28;20509;-73
2023/10/10 15:14:12;;;;;;;15.07;6.55;;;14.70;97.40;;;;;;5047221;28;20029;-72
2023/10/10 15:16:40;;;;;;;12.43;6.55;;;14.60;97.50;;;;;;5048283;28;20032;-75
2023/10/10 15:19:07;;;;;;;15.38;6.30;;;14.50;97.60;;;;;;5048358;28;20099;-72
2023/10/10 15:21:37;;;;;;;12.35;6.30;;;14.50;97.80;;;;;;5048495;28;20025;-73
2023/10/10 15:24:09;;;;;;;13.43;7.22;;;14.40;98.10;;;;;;5045402;28;20033;-73
2023/10/10 15:26:34;;;;;;;16.65;7.05;;;14.30;98.40;;;;;;5036700;28;20033;-73
2023/10/10 15:29:00;;;;;;;16.02;5.95;;;14.30;98.70;;;;;;5043227;28;20516;-73
2023/10/10 15:31:27;;;;;;;;;;;14.20;99.10;;;;;;5037723;28;20060;-73
2023/10/10 15:33:53;;;;;;;13.88;6.30;;;14.10;99.70;;;;;;5027352;28;20329;-73
2023/10/10 15:36:18;;;;;;;15.65;6.25;;;14.00;99.90;;;;;;5027494;28;20128;-73
2023/10/10 15:38:45;;;;;;;15.13;7.07;;;13.90;99.90;;;;;;5028514;28;20513;-72
2023/10/10 15:41:19;;;;;;;18.48;6.43;;;13.90;99.90;;;;;;5041210;28;20037;-73
2023/10/10 15:43:49;;;;;;;17.38;6.78;;;13.90;99.90;;;;;;5048046;28;20379;-73
2023/10/10 15:46:16;;;;;;;12.35;6.25;;;13.80;99.90;;;;;;5048416;28;20163;-74
2023/10/10 15:48:48;;;;;;;13.30;6.80;;;13.70;99.90;;;;;;5048280;28;20037;-73
2023/10/10 15:51:20;;;;;;;13.65;6.80;;;13.70;99.90;;;;;;5040813;28;20037;-74
2023/10/10 15:53:47;;;;;;;15.77;7.53;;;13.60;99.90;;;;;;5027034;28;20022;-73
2023/10/10 15:56:15;;;;;;;20.02;8.27;;;13.60;99.90;;;;;;5026866;28;20335;-73
2023/10/10 15:58:49;;;;;;;25.10;9.30;;;13.60;99.90;;;;;;5028253;28;20486;-72
2023/10/10 16:01:21;;;;;;;16.13;9.13;;;13.50;99.90;;;;;;5037544;28;20394;-73
2023/10/10 16:03:51;;;;;;;17.27;9.18;;;13.40;99.90;;;;;;5044518;28;20048;-72